YM Initiative — A8HX4 — position and weather

sailwx.info

Track history (hours):
 
Tides and Currents Weather Stations Pressure Air Temp Water Temp Dewpoint Dewpoint Depression Visibility Wind Speed Wind Dir Waves Ship Positions

YM Initiative

Last reported at 2017-Dec-11 06:42 UTC. Time now 2017-Dec-14 00:46 UTC.
Position N 22°30' E 119°48'.

Length 173 m; draft 7.7 m.

Type: Cargo ship. MMSI: 635961368.

Date/timePositionNaut miles runAvg speedWind from/ knotsBaromVisibWave heightAir tempDewpointWater temp
2017-Dec-11 06:42N 22°30' E 119°48'318.7
2017-Dec-11 06:30N 22°30' E 119°52'918.7
2017-Dec-11 06:00N 22°31' E 120°02'918.3
2017-Dec-11 05:30N 22°32' E 120°12'713.0
2017-Dec-11 05:00N 22°33' E 120°19'0 0.0
2017-Dec-10 21:27N 22°33' E 120°19'1 2.5
2017-Dec-10 21:00N 22°33' E 120°20'0 0.0
2017-Dec-10 20:19N 22°33' E 120°20'0 0.0
2017-Dec-10 19:55N 22°33' E 120°20'0 0.0
2017-Dec-10 19:25N 22°33' E 120°20'0 0.0
2017-Dec-10 18:58N 22°33' E 120°20'0 0.0
2017-Dec-10 18:28N 22°33' E 120°20'0 0.0
2017-Dec-10 17:58N 22°33' E 120°20'0 0.0
2017-Dec-10 17:28N 22°33' E 120°20'0 0.0
2017-Dec-10 16:58N 22°33' E 120°20'0 0.0
2017-Dec-10 16:25N 22°33' E 120°20'0 0.0
2017-Dec-10 15:58N 22°33' E 120°20'0 0.0
2017-Dec-10 15:28N 22°33' E 120°20'0 0.0
2017-Dec-10 14:58N 22°33' E 120°20'0 0.0
2017-Dec-10 14:25N 22°33' E 120°20'0 0.0
2017-Dec-10 13:58N 22°33' E 120°20'0 0.0
2017-Dec-10 13:28N 22°33' E 120°20'0 0.0
2017-Dec-10 12:58N 22°33' E 120°20'0 0.0
2017-Dec-10 12:28N 22°33' E 120°20'0 0.0
2017-Dec-10 11:58N 22°33' E 120°20'0 0.0
2017-Dec-10 11:28N 22°33' E 120°20'0 0.0
2017-Dec-10 10:58N 22°33' E 120°20'0 0.0
2017-Dec-10 10:28N 22°33' E 120°20'0 0.0
2017-Dec-10 09:58N 22°33' E 120°20'0 0.0
2017-Dec-10 09:28N 22°33' E 120°20'0 0.0
2017-Dec-10 08:58N 22°33' E 120°20'0 0.0
2017-Dec-10 08:28N 22°33' E 120°20'0 0.0
2017-Dec-10 07:58N 22°33' E 120°20'0 0.0
2017-Dec-10 07:28N 22°33' E 120°20'0 0.0
2017-Dec-10 06:58N 22°33' E 120°20'0 0.0
2017-Dec-10 06:19N 22°33' E 120°20'0 0.0
2017-Dec-10 05:58N 22°33' E 120°20'0 0.0
2017-Dec-10 05:25N 22°33' E 120°20'0 0.0
2017-Dec-10 04:58N 22°33' E 120°20'0 0.0
2017-Dec-10 04:28N 22°33' E 120°20'0 0.0
2017-Dec-10 03:58N 22°33' E 120°20'0 0.0
2017-Dec-10 03:28N 22°33' E 120°20'0 0.0
2017-Dec-10 02:58N 22°33' E 120°20'0 0.0
2017-Dec-10 02:28N 22°33' E 120°20'0 0.0
2017-Dec-10 01:58N 22°33' E 120°20'0 0.0
2017-Dec-10 01:25N 22°33' E 120°20'0 0.1
2017-Dec-10 01:00N 22°33' E 120°20'3 6.7
2017-Dec-10 00:31N 22°33' E 120°16'3 6.8
2017-Dec-10 00:00N 22°32' E 120°13'4 8.5
2017-Dec-09 23:31N 22°36' E 120°10'510.8
2017-Dec-09 23:00N 22°40' E 120°07'510.9
2017-Dec-09 22:30N 22°45' E 120°04'511.0
2017-Dec-09 22:00N 22°50' E 120°01'714.4
2017-Dec-09 21:30N 22°56' E 119°57'815.8
2017-Dec-09 21:00N 23°03' E 119°53'816.0
2017-Dec-09 20:30N 23°11' E 119°51'815.8
2017-Dec-09 20:01N 23°18' E 119°52'815.9
2017-Dec-09 19:30N 23°26' E 119°53'815.4
2017-Dec-09 19:00N 23°34' E 119°53'714.9
2017-Dec-09 18:31N 23°41' E 119°53'714.5
2017-Dec-09 18:00N 23°48' E 119°55'4 0.1
2017-Dec-07 18:01N 23°44' E 119°53'010.4
2017-Dec-07 18:00N 23°44' E 119°53'510.2
2017-Dec-07 17:30N 23°39' E 119°53'510.3
2017-Dec-07 17:00N 23°34' E 119°53'510.3
2017-Dec-07 16:30N 23°29' E 119°53'510.6
2017-Dec-07 16:00N 23°24' E 119°53'510.5
2017-Dec-07 15:30N 23°18' E 119°53'1110.5
2017-Dec-07 14:27N 23°07' E 119°53'510.0
2017-Dec-07 14:00N 23°03' E 119°54'510.7
2017-Dec-07 13:30N 22°59' E 119°57'510.5
2017-Dec-07 13:00N 22°54' E 120°00'510.4
2017-Dec-07 12:30N 22°50' E 120°04'510.6
2017-Dec-07 12:00N 22°45' E 120°06'510.4
2017-Dec-07 11:30N 22°40' E 120°08'510.5
2017-Dec-07 11:00N 22°36' E 120°11'4 8.2
2017-Dec-07 10:31N 22°33' E 120°14'5 9.7
2017-Dec-07 10:00N 22°33' E 120°19'1 1.1
2017-Dec-07 09:30N 22°34' E 120°19'0 0.0
2017-Dec-07 08:59N 22°34' E 120°19'0 0.0
2017-Dec-07 08:29N 22°34' E 120°19'0 0.0
2017-Dec-07 07:59N 22°34' E 120°19'0 0.0
2017-Dec-07 07:29N 22°34' E 120°19'0 0.0
2017-Dec-07 06:59N 22°34' E 120°19'0 0.0
2017-Dec-07 06:26N 22°34' E 120°19'0 0.0
2017-Dec-07 05:59N 22°34' E 120°19'1 2.4
2017-Dec-07 05:30N 22°33' E 120°20'0 0.7
2017-Dec-07 04:58N 22°33' E 120°20'0 0.0
2017-Dec-07 04:16N 22°33' E 120°20'0 0.0
2017-Dec-07 03:58N 22°33' E 120°20'0 0.0
2017-Dec-07 03:28N 22°33' E 120°20'0 0.0
2017-Dec-07 02:55N 22°33' E 120°20'0 0.0
2017-Dec-07 02:28N 22°33' E 120°20'0 0.0
2017-Dec-07 01:58N 22°33' E 120°20'0 0.0
2017-Dec-07 01:28N 22°33' E 120°20'0 0.0
2017-Dec-07 00:58N 22°33' E 120°20'0 0.0
2017-Dec-07 00:28N 22°33' E 120°20'0 0.0
2017-Dec-06 23:58N 22°33' E 120°20'0 0.0
2017-Dec-06 23:22N 22°33' E 120°20'0 0.0
2017-Dec-06 22:58N 22°33' E 120°20'0 0.0
2017-Dec-06 22:28N 22°33' E 120°20'0 0.0
2017-Dec-06 21:58N 22°33' E 120°20'0 0.0
2017-Dec-06 21:28N 22°33' E 120°20'0 0.0
2017-Dec-06 20:58N 22°33' E 120°20'  
Track history (hours):
 
Tides and Currents Weather Stations Pressure Air Temp Water Temp Dewpoint Dewpoint Depression Visibility Wind Speed Wind Dir Waves Ship Positions

YM Initiative

Last reported at 2017-Dec-11 06:42 UTC. Time now 2017-Dec-14 00:46 UTC.
Position N 22°30' E 119°48'.

Length 173 m; draft 7.7 m.

Type: Cargo ship. MMSI: 635961368.

Date/timePositionNaut miles runAvg speedWind from/ knotsBaromVisibWave heightAir tempDewpointWater temp
2017-Dec-11 06:42N 22°30' E 119°48'318.7
2017-Dec-11 06:30N 22°30' E 119°52'918.7
2017-Dec-11 06:00N 22°31' E 120°02'918.3
2017-Dec-11 05:30N 22°32' E 120°12'713.0
2017-Dec-11 05:00N 22°33' E 120°19'0 0.0
2017-Dec-10 21:27N 22°33' E 120°19'1 2.5
2017-Dec-10 21:00N 22°33' E 120°20'0 0.0
2017-Dec-10 20:19N 22°33' E 120°20'0 0.0
2017-Dec-10 19:55N 22°33' E 120°20'0 0.0
2017-Dec-10 19:25N 22°33' E 120°20'0 0.0
2017-Dec-10 18:58N 22°33' E 120°20'0 0.0
2017-Dec-10 18:28N 22°33' E 120°20'0 0.0
2017-Dec-10 17:58N 22°33' E 120°20'0 0.0
2017-Dec-10 17:28N 22°33' E 120°20'0 0.0
2017-Dec-10 16:58N 22°33' E 120°20'0 0.0
2017-Dec-10 16:25N 22°33' E 120°20'0 0.0
2017-Dec-10 15:58N 22°33' E 120°20'0 0.0
2017-Dec-10 15:28N 22°33' E 120°20'0 0.0
2017-Dec-10 14:58N 22°33' E 120°20'0 0.0
2017-Dec-10 14:25N 22°33' E 120°20'0 0.0
2017-Dec-10 13:58N 22°33' E 120°20'0 0.0
2017-Dec-10 13:28N 22°33' E 120°20'0 0.0
2017-Dec-10 12:58N 22°33' E 120°20'0 0.0
2017-Dec-10 12:28N 22°33' E 120°20'0 0.0
2017-Dec-10 11:58N 22°33' E 120°20'0 0.0
2017-Dec-10 11:28N 22°33' E 120°20'0 0.0
2017-Dec-10 10:58N 22°33' E 120°20'0 0.0
2017-Dec-10 10:28N 22°33' E 120°20'0 0.0
2017-Dec-10 09:58N 22°33' E 120°20'0 0.0
2017-Dec-10 09:28N 22°33' E 120°20'0 0.0
2017-Dec-10 08:58N 22°33' E 120°20'0 0.0
2017-Dec-10 08:28N 22°33' E 120°20'0 0.0
2017-Dec-10 07:58N 22°33' E 120°20'0 0.0
2017-Dec-10 07:28N 22°33' E 120°20'0 0.0
2017-Dec-10 06:58N 22°33' E 120°20'0 0.0
2017-Dec-10 06:19N 22°33' E 120°20'0 0.0
2017-Dec-10 05:58N 22°33' E 120°20'0 0.0
2017-Dec-10 05:25N 22°33' E 120°20'0 0.0
2017-Dec-10 04:58N 22°33' E 120°20'0 0.0
2017-Dec-10 04:28N 22°33' E 120°20'0 0.0
2017-Dec-10 03:58N 22°33' E 120°20'0 0.0
2017-Dec-10 03:28N 22°33' E 120°20'0 0.0
2017-Dec-10 02:58N 22°33' E 120°20'0 0.0
2017-Dec-10 02:28N 22°33' E 120°20'0 0.0
2017-Dec-10 01:58N 22°33' E 120°20'0 0.0
2017-Dec-10 01:25N 22°33' E 120°20'0 0.1
2017-Dec-10 01:00N 22°33' E 120°20'3 6.7
2017-Dec-10 00:31N 22°33' E 120°16'3 6.8
2017-Dec-10 00:00N 22°32' E 120°13'4 8.5
2017-Dec-09 23:31N 22°36' E 120°10'510.8
2017-Dec-09 23:00N 22°40' E 120°07'510.9
2017-Dec-09 22:30N 22°45' E 120°04'511.0
2017-Dec-09 22:00N 22°50' E 120°01'714.4
2017-Dec-09 21:30N 22°56' E 119°57'815.8
2017-Dec-09 21:00N 23°03' E 119°53'816.0
2017-Dec-09 20:30N 23°11' E 119°51'815.8
2017-Dec-09 20:01N 23°18' E 119°52'815.9
2017-Dec-09 19:30N 23°26' E 119°53'815.4
2017-Dec-09 19:00N 23°34' E 119°53'714.9
2017-Dec-09 18:31N 23°41' E 119°53'714.5
2017-Dec-09 18:00N 23°48' E 119°55'4 0.1
2017-Dec-07 18:01N 23°44' E 119°53'010.4
2017-Dec-07 18:00N 23°44' E 119°53'510.2
2017-Dec-07 17:30N 23°39' E 119°53'510.3
2017-Dec-07 17:00N 23°34' E 119°53'510.3
2017-Dec-07 16:30N 23°29' E 119°53'510.6
2017-Dec-07 16:00N 23°24' E 119°53'510.5
2017-Dec-07 15:30N 23°18' E 119°53'1110.5
2017-Dec-07 14:27N 23°07' E 119°53'510.0
2017-Dec-07 14:00N 23°03' E 119°54'510.7
2017-Dec-07 13:30N 22°59' E 119°57'510.5
2017-Dec-07 13:00N 22°54' E 120°00'510.4
2017-Dec-07 12:30N 22°50' E 120°04'510.6
2017-Dec-07 12:00N 22°45' E 120°06'510.4
2017-Dec-07 11:30N 22°40' E 120°08'510.5
2017-Dec-07 11:00N 22°36' E 120°11'4 8.2
2017-Dec-07 10:31N 22°33' E 120°14'5 9.7
2017-Dec-07 10:00N 22°33' E 120°19'1 1.1
2017-Dec-07 09:30N 22°34' E 120°19'0 0.0
2017-Dec-07 08:59N 22°34' E 120°19'0 0.0
2017-Dec-07 08:29N 22°34' E 120°19'0 0.0
2017-Dec-07 07:59N 22°34' E 120°19'0 0.0
2017-Dec-07 07:29N 22°34' E 120°19'0 0.0
2017-Dec-07 06:59N 22°34' E 120°19'0 0.0
2017-Dec-07 06:26N 22°34' E 120°19'0 0.0
2017-Dec-07 05:59N 22°34' E 120°19'1 2.4
2017-Dec-07 05:30N 22°33' E 120°20'0 0.7
2017-Dec-07 04:58N 22°33' E 120°20'0 0.0
2017-Dec-07 04:16N 22°33' E 120°20'0 0.0
2017-Dec-07 03:58N 22°33' E 120°20'0 0.0
2017-Dec-07 03:28N 22°33' E 120°20'0 0.0
2017-Dec-07 02:55N 22°33' E 120°20'0 0.0
2017-Dec-07 02:28N 22°33' E 120°20'0 0.0
2017-Dec-07 01:58N 22°33' E 120°20'0 0.0
2017-Dec-07 01:28N 22°33' E 120°20'0 0.0
2017-Dec-07 00:58N 22°33' E 120°20'0 0.0
2017-Dec-07 00:28N 22°33' E 120°20'0 0.0
2017-Dec-06 23:58N 22°33' E 120°20'0 0.0
2017-Dec-06 23:22N 22°33' E 120°20'0 0.0
2017-Dec-06 22:58N 22°33' E 120°20'0 0.0
2017-Dec-06 22:28N 22°33' E 120°20'0 0.0
2017-Dec-06 21:58N 22°33' E 120°20'0 0.0
2017-Dec-06 21:28N 22°33' E 120°20'0 0.0
2017-Dec-06 20:58N 22°33' E 120°20'  

Dump ship's entire track history